Sycamore, Missouri
Current Conditions -  °F | °C
As of 2:53 PM on Tuesday 27 Jan 2015 (Local Time) from KBPK Reporting Station
Clear Clear  
Wind Chill: 58°   Ceiling: Unl
Heat Index: 58°   Visibility: 10mi
Dew Point: 31°   Wind: 5mph
Humidity: 36%   Direction: NA
Pressure: 30.1"   Gusts: NA
Location:  36.5904°N, 92.2572°W
Report Text: KBPK 272053Z AUTO VRB04KT 10SM CLR 14/M01 A3010 RMK AO2 SLP194 T01441006 56014
Loading
Personal Weather Stations






























Interactive Weather Map New forecast layout! Learn more

10-Day Weather Forecast

Advertisements
Track Severe Weather on mobile